Time;durP1;ratioP1;P1;durP2;ratioP2;P2;SDS_P1;SDS_P2;PMS_P1;PMS_P2;Temp;Humidity;BMP_temperature;BMP_pressure;BME280_temperature;BME280_humidity;BME280_pressure;Samples;Min_cycle;Max_cycle;Signal;HPM_P1;HPM_P2
2022/07/01 00:02:25;;;;;;;30.67;17.48;;;;;;;18.64;59.88;101406.25;4895441;28;120300;-71
2022/07/01 00:04:52;;;;;;;30.60;18.05;;;;;;;18.64;59.82;101408.91;4893598;28;119833;-71
2022/07/01 00:07:38;;;;;;;32.00;17.88;;;;;;;18.63;59.89;101409.91;4904812;28;124858;-71
2022/07/01 00:10:06;;;;;;;26.67;16.90;;;;;;;18.65;59.97;101407.97;4903357;28;124911;-71
2022/07/01 00:12:33;;;;;;;27.70;17.27;;;;;;;18.65;59.99;101413.34;4911057;28;119339;-71
2022/07/01 00:15:00;;;;;;;30.10;18.17;;;;;;;18.63;60.01;101415.28;4921087;28;118011;-71
2022/07/01 00:17:27;;;;;;;27.65;17.80;;;;;;;18.62;59.71;101413.53;4911415;28;124082;-71
2022/07/01 00:19:55;;;;;;;28.30;16.98;;;;;;;18.61;59.86;101411.81;4910509;28;124234;-71
2022/07/01 00:22:22;;;;;;;26.77;17.00;;;;;;;18.58;60.00;101422.78;4909830;28;119422;-71
2022/07/01 00:24:49;;;;;;;26.38;16.60;;;;;;;18.57;60.00;101421.03;4894586;28;117922;-71
2022/07/01 00:27:16;;;;;;;27.38;16.83;;;;;;;18.57;60.02;101411.19;4910453;28;124661;-71
2022/07/01 00:29:43;;;;;;;27.13;16.85;;;;;;;18.57;59.92;101399.56;4909504;28;123979;-71
2022/07/01 00:32:10;;;;;;;25.83;16.55;;;;;;;18.57;60.00;101407.63;4910422;28;119240;-71
2022/07/01 00:34:38;;;;;;;26.20;16.33;;;;;;;18.57;60.00;101407.63;4906546;28;119422;-70
2022/07/01 00:37:05;;;;;;;24.50;15.48;;;;;;;18.57;59.99;101413.00;4906409;28;124639;-71
2022/07/01 00:39:34;;;;;;;27.20;16.70;;;;;;;18.57;59.80;101404.94;4906473;28;123727;-73
2022/07/01 00:42:03;;;;;;;26.30;16.35;;;;;;;18.58;59.76;101401.31;4902864;28;119060;-71
2022/07/01 00:44:31;;;;;;;25.92;16.30;;;;;;;18.55;59.96;101406.88;4905916;28;118944;-71
2022/07/01 00:47:02;;;;;;;24.40;15.75;;;;;;;18.53;59.89;101408.81;4903419;28;123937;-70
2022/07/01 00:49:31;;;;;;;22.98;14.93;;;;;;;18.51;59.94;101408.06;4898237;28;124460;-70
2022/07/01 00:51:59;;;;;;;21.75;13.50;;;;;;;18.47;59.79;101408.25;4893496;28;119955;-70
2022/07/01 00:54:27;;;;;;;18.50;12.25;;;;;;;18.43;59.86;101409.44;4895300;28;120004;-71
2022/07/01 00:56:56;;;;;;;18.15;12.13;;;;;;;18.40;59.73;101415.03;4898899;28;124790;-70
2022/07/01 00:59:24;;;;;;;19.02;11.93;;;;;;;18.38;59.73;101416.94;4908790;28;124809;-70
2022/07/01 01:01:51;;;;;;;17.92;11.55;;;;;;;18.34;59.76;101420.81;4894192;28;119754;-70
2022/07/01 01:04:18;;;;;;;17.13;11.38;;;;;;;18.32;59.57;101422.75;4899794;28;118883;-70
2022/07/01 01:06:45;;;;;;;17.95;10.95;;;;;;;18.27;59.75;101424.88;4898658;28;123954;-70
2022/07/01 01:09:13;;;;;;;15.82;10.77;;;;;;;18.23;59.70;101431.41;4900861;28;124441;-70
2022/07/01 01:11:40;;;;;;;15.55;10.52;;;;;;;18.20;59.92;101434.31;4895854;28;119319;-70
2022/07/01 01:14:07;;;;;;;17.98;11.23;;;;;;;18.19;59.90;101437.94;4900096;28;119060;-70
2022/07/01 01:16:35;;;;;;;15.90;10.98;;;;;;;18.19;59.97;101454.03;4898261;28;124773;-71
2022/07/01 01:19:05;;;;;;;19.70;10.77;;;;;;;18.19;59.94;101459.41;4897677;28;124485;-70
2022/07/01 01:21:34;;;;;;;15.02;9.77;;;;;;;18.17;60.13;101464.84;4899362;28;119114;-70
2022/07/01 01:24:01;;;;;;;16.08;9.90;;;;;;;18.16;60.19;101462.28;4895778;28;120291;-70
2022/07/01 01:26:28;;;;;;;17.05;10.93;;;;;;;18.17;59.96;101466.69;4893015;28;124664;-71
2022/07/01 01:28:55;;;;;;;15.07;10.48;;;;;;;18.15;60.00;101471.28;4901651;28;124016;-70
2022/07/01 01:31:30;;;;;;;18.80;11.43;;;;;;;18.12;60.24;101474.16;4901176;28;119225;-70
2022/07/01 01:33:57;;;;;;;;;;;;;;;18.08;59.49;101469.03;4896245;28;119019;-70
2022/07/01 01:36:25;;;;;;;17.45;11.18;;;;;;;18.08;59.96;101469.03;4895714;28;124467;-70
2022/07/01 01:38:56;;;;;;;19.63;11.93;;;;;;;18.08;60.22;101468.16;4905716;28;96944;-70
2022/07/01 01:41:23;;;;;;;20.35;12.68;;;;;;;18.08;59.85;101474.41;4899770;28;120889;-70
2022/07/01 01:43:50;;;;;;;20.42;13.10;;;;;;;18.07;59.90;101472.66;4897167;28;120587;-70
2022/07/01 01:46:17;;;;;;;21.08;13.43;;;;;;;18.07;60.14;101467.31;4899454;28;124033;-70
2022/07/01 01:48:44;;;;;;;23.27;13.07;;;;;;;18.05;60.21;101469.22;4903220;28;123422;-70
2022/07/01 01:51:12;;;;;;;18.83;12.30;;;;;;;18.04;60.22;101478.22;4893044;28;120126;-70
2022/07/01 01:53:39;;;;;;;22.85;12.93;;;;;;;18.02;60.08;101482.81;4897365;28;119247;-70
2022/07/01 01:56:06;;;;;;;21.50;13.30;;;;;;;18.04;60.21;101478.22;4900224;28;124074;-70
2022/07/01 01:58:33;;;;;;;21.23;13.05;;;;;;;18.03;60.37;101476.50;4892969;28;124212;-70
2022/07/01 02:01:01;;;;;;;19.98;13.02;;;;;;;18.03;60.27;101476.50;4898607;28;119110;-70
2022/07/01 02:03:28;;;;;;;19.75;13.15;;;;;;;18.02;60.28;101464.06;4895191;28;119369;-70
2022/07/01 02:05:56;;;;;;;21.40;13.50;;;;;;;18.02;60.17;101464.06;4899326;28;124684;-70
2022/07/01 02:08:23;;;;;;;20.15;13.20;;;;;;;18.02;60.42;101474.78;4888720;28;124667;-70
2022/07/01 02:10:50;;;;;;;23.85;14.27;;;;;;;18.02;60.04;101469.41;4901455;28;119315;-70
2022/07/01 02:13:20;;;;;;;19.63;12.40;;;;;;;18.01;60.13;101467.72;4897187;28;119129;-70
2022/07/01 02:15:49;;;;;;;22.88;13.23;;;;;;;18.00;60.23;101476.69;4921120;28;123858;-69
2022/07/01 02:18:17;;;;;;;18.52;12.30;;;;;;;17.99;60.18;101483.03;4895571;28;123935;-71
2022/07/01 02:20:45;;;;;;;19.27;12.90;;;;;;;17.98;60.47;101486.66;4894648;28;119620;-71
2022/07/01 02:23:12;;;;;;;20.42;13.35;;;;;;;17.98;60.24;101484.00;4892865;28;119192;-71
2022/07/01 02:25:39;;;;;;;21.27;12.63;;;;;;;17.96;60.13;101493.97;4893615;28;124010;-71
2022/07/01 02:28:07;;;;;;;23.17;13.52;;;;;;;17.93;60.23;101506.69;4894358;28;123684;-70
2022/07/01 02:30:37;;;;;;;20.42;12.75;;;;;;;17.91;60.18;101514.81;4894936;28;119525;-71
2022/07/01 02:33:06;;;;;;;18.50;11.73;;;;;;;17.91;60.13;101498.75;4889488;28;119999;-71
2022/07/01 02:35:36;;;;;;;17.60;11.48;;;;;;;17.89;60.19;101489.94;4898577;28;123985;-70
2022/07/01 02:38:04;;;;;;;17.50;11.40;;;;;;;17.88;60.26;101489.09;4894391;28;124081;-71
2022/07/01 02:40:33;;;;;;;17.77;11.23;;;;;;;17.89;60.27;101489.94;4897620;28;120255;-71
2022/07/01 02:43:00;;;;;;;19.42;11.00;;;;;;;17.88;60.22;101482.88;4896335;28;118849;-71
2022/07/01 02:45:28;;;;;;;15.98;11.10;;;;;;;17.86;60.33;101474.09;4895086;28;123875;-71
2022/07/01 02:47:55;;;;;;;16.42;10.77;;;;;;;17.86;60.29;101476.78;4896007;28;125136;-72
2022/07/01 02:50:22;;;;;;;17.65;11.05;;;;;;;17.85;60.18;101477.72;4896554;28;119145;-72
2022/07/01 02:52:56;;;;;;;18.48;10.63;;;;;;;17.83;60.38;101485.81;4897548;28;118969;-70
2022/07/01 02:55:23;;;;;;;16.40;9.95;;;;;;;17.84;60.27;101489.38;4895111;28;124667;-71
2022/07/01 02:57:51;;;;;;;14.45;10.45;;;;;;;17.86;60.37;101490.16;4891236;28;123995;-70
2022/07/01 03:00:20;;;;;;;17.48;10.30;;;;;;;17.87;60.40;101491.88;4901695;28;119977;-70
2022/07/01 03:02:48;;;;;;;14.52;9.75;;;;;;;17.89;60.35;101506.03;4902365;28;118845;-70
2022/07/01 03:05:16;;;;;;;16.38;10.13;;;;;;;17.90;60.49;101507.75;4899158;28;124575;-70
2022/07/01 03:07:43;;;;;;;18.35;10.85;;;;;;;17.90;60.36;101518.50;4898711;28;124381;-69
2022/07/01 03:10:11;;;;;;;16.38;10.48;;;;;;;17.90;60.39;101523.84;4903283;28;118795;-70
2022/07/01 03:12:39;;;;;;;14.65;9.80;;;;;;;17.88;60.21;101526.63;4904925;28;118909;-69
2022/07/01 03:15:14;;;;;;;17.20;10.15;;;;;;;17.86;60.30;101528.53;4896555;28;123523;-69
2022/07/01 03:17:44;;;;;;;17.95;10.77;;;;;;;17.84;60.31;101530.47;4900072;28;124979;-69
2022/07/01 03:20:15;;;;;;;19.20;10.40;;;;;;;17.84;60.33;101529.59;4900110;28;120855;-69
2022/07/01 03:22:44;;;;;;;17.15;9.88;;;;;;;17.83;60.27;101539.41;4897489;28;120038;-70
2022/07/01 03:25:11;;;;;;;16.85;10.45;;;;;;;17.85;60.43;101536.66;4905120;28;122844;-70
2022/07/01 03:27:44;;;;;;;16.08;10.00;;;;;;;17.85;60.38;101525.97;4893858;28;124681;-70
2022/07/01 03:30:13;;;;;;;19.25;10.63;;;;;;;17.88;60.76;101523.09;4895705;28;119206;-70
2022/07/01 03:32:40;;;;;;;17.10;10.43;;;;;;;17.88;60.57;101523.09;4900888;28;119004;-69
2022/07/01 03:37:55;;;;;;;16.83;10.50;;;;;;;17.86;60.42;101538.41;4894106;28;124360;-69
2022/07/01 03:40:23;;;;;;;20.27;11.52;;;;;;;17.85;60.42;101544.72;4899229;28;120004;-69
2022/07/01 03:42:51;;;;;;;18.75;11.00;;;;;;;17.86;60.72;101551.81;4897220;28;118888;-69
2022/07/01 03:45:18;;;;;;;18.70;11.45;;;;;;;17.87;60.37;101550.84;4897855;28;124348;-69
2022/07/01 03:47:46;;;;;;;20.20;12.02;;;;;;;17.87;60.50;101551.69;4908088;28;124283;-69
2022/07/01 03:50:14;;;;;;;18.08;11.10;;;;;;;17.87;60.43;101540.97;4894383;28;119148;-69
2022/07/01 03:52:42;;;;;;;19.35;11.55;;;;;;;17.86;60.58;101538.41;4902791;28;119732;-69
2022/07/01 03:55:10;;;;;;;19.88;11.18;;;;;;;17.87;60.53;101543.66;4904527;28;124713;-69
2022/07/01 03:57:37;;;;;;;17.48;11.32;;;;;;;17.85;60.37;101550.06;4902468;28;123909;-69
2022/07/01 04:00:07;;;;;;;17.80;11.13;;;;;;;17.86;60.55;101559.84;4903479;28;119191;-68
2022/07/01 04:02:34;;;;;;;18.10;10.38;;;;;;;17.85;60.58;101558.13;4906568;28;118977;-68
2022/07/01 04:05:01;;;;;;;17.88;10.38;;;;;;;17.84;60.42;101561.75;4906423;28;123872;-68
2022/07/01 04:07:28;;;;;;;15.48;9.85;;;;;;;17.85;60.86;101563.47;4904101;28;123517;-69
2022/07/01 04:09:55;;;;;;;17.40;10.98;;;;;;;17.85;60.30;101567.00;4899049;28;120294;-70
2022/07/01 04:12:23;;;;;;;16.60;10.00;;;;;;;17.84;60.37;101551.00;4898415;28;119899;-69
2022/07/01 04:14:51;;;;;;;16.17;10.02;;;;;;;17.82;60.30;101559.16;4900160;28;124268;-69
2022/07/01 04:17:18;;;;;;;16.30;10.00;;;;;;;17.82;60.32;101558.25;4900543;28;124137;-69
2022/07/01 04:19:45;;;;;;;15.93;10.30;;;;;;;17.79;60.46;101563.84;4903831;28;119055;-69
2022/07/01 04:22:35;;;;;;;17.60;10.18;;;;;;;17.76;60.43;101542.59;4900021;28;119487;-69
2022/07/01 04:25:04;;;;;;;15.57;10.07;;;;;;;17.74;60.54;101534.66;4903454;28;124047;-69
2022/07/01 04:27:31;;;;;;;16.05;9.57;;;;;;;17.74;60.52;101539.16;4906438;28;123923;-69
2022/07/01 04:29:59;;;;;;;17.10;10.20;;;;;;;17.73;60.59;101538.31;4910818;28;119580;-69
2022/07/01 04:32:26;;;;;;;17.30;10.52;;;;;;;17.74;60.51;101539.16;4909504;28;119902;-69
2022/07/01 04:34:53;;;;;;;17.58;10.52;;;;;;;17.74;60.61;101544.50;4904175;28;124056;-68
2022/07/01 04:37:20;;;;;;;18.98;9.75;;;;;;;17.74;60.58;101544.50;4902650;28;124377;-69
2022/07/01 04:39:48;;;;;;;18.13;10.27;;;;;;;17.76;60.50;101539.91;4907831;28;119121;-69
2022/07/01 04:42:17;;;;;;;18.77;10.98;;;;;;;17.76;60.67;101553.31;4905115;28;118158;-69
2022/07/01 04:44:44;;;;;;;17.27;10.23;;;;;;;17.77;60.58;101565.75;4905934;28;123868;-69
2022/07/01 04:47:12;;;;;;;19.27;10.45;;;;;;;17.77;60.65;101571.13;4907304;28;123411;-69
2022/07/01 04:49:39;;;;;;;17.90;10.30;;;;;;;17.78;60.68;101575.50;4904842;28;119272;-69
2022/07/01 04:52:06;;;;;;;22.20;10.93;;;;;;;17.79;60.64;101574.56;4907466;28;119350;-69
2022/07/01 04:54:33;;;;;;;17.10;10.80;;;;;;;17.81;60.79;101583.34;4905780;28;124400;-69
2022/07/01 04:57:00;;;;;;;18.02;10.45;;;;;;;17.83;60.71;101576.06;4908473;28;123751;-69
2022/07/01 04:59:27;;;;;;;16.85;10.65;;;;;;;17.85;60.91;101574.19;4906348;28;119489;-68
2022/07/01 05:01:55;;;;;;;15.40;10.10;;;;;;;17.87;60.83;101572.28;4904907;28;119716;-69
2022/07/01 05:04:23;;;;;;;18.58;10.75;;;;;;;17.89;60.84;101575.72;4905980;28;123822;-69
2022/07/01 05:06:50;;;;;;;17.20;10.98;;;;;;;17.91;60.79;101573.78;4905533;28;123903;-69
2022/07/01 05:09:17;;;;;;;19.40;10.38;;;;;;;17.96;60.92;101577.03;4904810;28;118958;-69
2022/07/01 05:11:49;;;;;;;17.75;10.15;;;;;;;18.00;60.87;101573.19;4905847;28;118533;-70
2022/07/01 05:14:16;;;;;;;18.90;10.55;;;;;;;18.03;60.90;101578.38;4906018;28;123897;-71
2022/07/01 05:16:43;;;;;;;15.68;10.25;;;;;;;18.05;60.83;101587.16;4906246;28;123909;-72
2022/07/01 05:21:57;;;;;;;16.27;10.20;;;;;;;18.11;60.67;101575.19;4903742;28;119041;-69
2022/07/01 05:24:27;;;;;;;15.63;9.70;;;;;;;18.13;60.74;101577.78;4907509;28;123068;-69
2022/07/01 05:26:55;;;;;;;15.85;9.93;;;;;;;18.15;60.77;101575.84;4902460;28;123741;-70
2022/07/01 05:29:22;;;;;;;15.07;10.00;;;;;;;18.17;60.72;101568.56;4905351;28;119797;-70
2022/07/01 05:31:49;;;;;;;16.83;10.15;;;;;;;18.21;60.95;101578.13;4902691;28;118924;-70
2022/07/01 05:34:16;;;;;;;17.73;10.80;;;;;;;18.25;60.80;101568.91;4905340;28;124072;-70
2022/07/01 05:36:44;;;;;;;15.38;10.25;;;;;;;18.29;60.76;101567.78;4908545;28;123795;-69
2022/07/01 05:39:11;;;;;;;19.75;11.35;;;;;;;18.34;60.70;101571.00;4903141;28;119445;-69
2022/07/01 05:41:39;;;;;;;17.65;10.52;;;;;;;18.39;60.74;101568.88;4905049;28;118994;-70
2022/07/01 05:44:06;;;;;;;20.48;12.10;;;;;;;18.42;60.64;101579.41;4908287;28;124836;-70
2022/07/01 05:46:33;;;;;;;19.88;12.55;;;;;;;18.46;60.63;101586.28;4907519;28;122845;-69
2022/07/01 05:49:00;;;;;;;18.88;12.93;;;;;;;18.51;60.59;101593.16;4905009;28;120633;-69
2022/07/01 05:51:27;;;;;;;21.20;13.93;;;;;;;18.55;60.31;101594.66;4903626;28;120714;-69
2022/07/01 05:53:56;;;;;;;21.48;13.00;;;;;;;18.57;60.36;101592.75;4906904;28;124063;-69
2022/07/01 05:56:25;;;;;;;22.48;13.10;;;;;;;18.59;60.41;101585.44;4902763;28;123939;-69
2022/07/01 05:58:54;;;;;;;21.63;13.60;;;;;;;18.65;60.70;101585.06;4903102;28;120012;-69
2022/07/01 06:01:21;;;;;;;17.15;12.02;;;;;;;18.72;60.43;101580.13;4907735;28;119426;-69
2022/07/01 06:03:48;;;;;;;18.63;12.57;;;;;;;18.74;60.29;101578.19;4902000;28;124178;-68
2022/07/01 06:06:18;;;;;;;19.70;11.57;;;;;;;18.76;59.88;101582.50;4898423;28;122960;-69
2022/07/01 06:08:45;;;;;;;18.17;11.27;;;;;;;18.77;59.97;101584.22;4906509;28;119093;-69
2022/07/01 06:11:12;;;;;;;16.73;10.95;;;;;;;18.78;59.83;101583.25;4904705;28;118988;-67
2022/07/01 06:13:39;;;;;;;16.00;11.23;;;;;;;18.83;59.74;101583.81;4896076;28;124016;-67
2022/07/01 06:16:07;;;;;;;16.60;10.30;;;;;;;18.90;59.84;101580.75;4899529;28;124038;-69
2022/07/01 06:18:34;;;;;;;15.85;10.55;;;;;;;18.96;60.06;101588.38;4895705;28;119114;-68
2022/07/01 06:21:01;;;;;;;13.63;9.57;;;;;;;19.02;60.05;101583.44;4902743;28;119511;-69
2022/07/01 06:23:28;;;;;;;16.83;9.05;;;;;;;19.07;59.63;101580.44;4901963;28;124783;-69
2022/07/01 06:25:56;;;;;;;15.63;9.52;;;;;;;19.09;59.44;101589.22;4900168;28;123781;-69
2022/07/01 06:28:25;;;;;;;13.95;9.20;;;;;;;19.10;59.34;101595.47;4901579;28;119379;-69
2022/07/01 06:30:54;;;;;;;15.57;8.85;;;;;;;19.08;58.96;101582.16;4903084;28;119060;-66
2022/07/01 06:33:22;;;;;;;12.40;8.73;;;;;;;19.06;58.78;101594.81;4901904;28;123956;-67
2022/07/01 06:35:49;;;;;;;16.95;9.15;;;;;;;19.02;58.82;101591.50;4899765;28;122843;-67
2022/07/01 06:38:16;;;;;;;14.07;8.63;;;;;;;19.00;58.86;101596.09;4904027;28;119898;-67
2022/07/01 06:41:26;;;;;;;15.10;9.80;;;;;;;19.04;58.89;101591.38;4902212;28;119782;-67
2022/07/01 06:43:30;;;;;;;13.48;9.00;;;;;;;19.09;58.61;101583.88;4897664;28;123782;-67
2022/07/01 06:45:57;;;;;;;13.10;8.57;;;;;;;19.16;59.02;101590.53;4895402;28;123921;-67
2022/07/01 06:48:24;;;;;;;12.65;8.57;;;;;;;19.22;58.88;101594.63;4893654;28;119411;-67
2022/07/01 06:50:52;;;;;;;14.65;8.43;;;;;;;19.34;59.00;101599.13;4901523;28;119028;-67
2022/07/01 06:53:19;;;;;;;11.48;8.25;;;;;;;19.46;58.72;101592.03;4903112;28;124285;-67
2022/07/01 06:55:46;;;;;;;11.15;7.85;;;;;;;19.55;58.51;101606.63;4899209;28;123930;-67
2022/07/01 06:58:17;;;;;;;10.50;7.47;;;;;;;19.60;58.17;101602.66;4903260;28;119131;-67
2022/07/01 07:00:45;;;;;;;11.13;7.65;;;;;;;19.65;58.08;101613.94;4901443;28;118871;-67
2022/07/01 07:03:12;;;;;;;9.98;7.07;;;;;;;19.74;57.89;101606.22;4900880;28;124514;-67
2022/07/01 07:05:39;;;;;;;10.32;6.75;;;;;;;19.85;57.69;101611.69;4899718;28;123891;-67
2022/07/01 07:08:06;;;;;;;11.38;7.00;;;;;;;19.98;57.47;101609.81;4900026;28;119134;-67
2022/07/01 07:10:33;;;;;;;9.98;6.68;;;;;;;20.13;57.59;101609.69;4903355;28;118915;-68
2022/07/01 07:13:00;;;;;;;9.02;6.28;;;;;;;20.28;57.41;101600.47;4903017;28;124429;-69
2022/07/01 07:15:28;;;;;;;8.60;6.05;;;;;;;20.39;57.08;101603.22;4906935;28;123738;-69
2022/07/01 07:17:57;;;;;;;14.52;6.65;;;;;;;20.54;57.02;101612.00;4891819;28;118357;-68
2022/07/01 07:20:25;;;;;;;9.73;5.95;;;;;;;20.67;56.65;101605.72;4909366;28;118946;-69
2022/07/01 07:22:53;;;;;;;11.90;6.05;;;;;;;20.72;56.26;101604.41;4903357;28;124822;-69
2022/07/01 07:25:20;;;;;;;8.43;5.68;;;;;;;20.78;55.80;101624.63;4906997;28;125389;-69
2022/07/01 07:27:47;;;;;;;22.05;8.18;;;;;;;20.82;55.58;101625.25;4905112;28;120026;-68
2022/07/01 07:30:15;;;;;;;8.75;5.57;;;;;;;20.86;55.59;101632.13;4921685;28;120120;-69
2022/07/01 07:32:42;;;;;;;11.43;5.90;;;;;;;20.94;55.36;101637.75;4908475;28;124024;-68
2022/07/01 07:35:10;;;;;;;7.75;4.70;;;;;;;21.00;54.78;101630.09;4907367;28;123642;-69
2022/07/01 07:37:38;;;;;;;9.90;5.00;;;;;;;21.05;54.68;101627.03;4920632;28;119915;-70
2022/07/01 07:40:09;;;;;;;10.48;4.85;;;;;;;21.08;54.28;101632.19;4907894;28;119049;-69
2022/07/01 07:42:36;;;;;;;7.70;4.95;;;;;;;21.08;53.99;101632.19;4904775;28;124024;-68
2022/07/01 07:45:08;;;;;;;7.43;4.85;;;;;;;21.07;53.98;101635.84;4905035;28;124128;-69
2022/07/01 07:47:35;;;;;;;9.38;4.85;;;;;;;21.06;53.69;101638.66;4909495;28;119109;-69
2022/07/01 07:50:04;;;;;;;11.25;4.60;;;;;;;21.02;53.63;101632.66;4897699;28;118995;-69
2022/07/01 07:52:31;;;;;;;6.55;4.28;;;;;;;21.02;53.55;101637.19;4899726;28;122871;-69
2022/07/01 07:54:58;;;;;;;6.95;4.35;;;;;;;21.04;53.61;101636.09;4896197;28;123935;-69
2022/07/01 07:57:25;;;;;;;5.60;4.10;;;;;;;21.13;53.38;101639.91;4896124;28;119294;-69
2022/07/01 07:59:53;;;;;;;7.82;4.00;;;;;;;21.25;53.28;101643.47;4907003;28;119692;-68
2022/07/01 08:02:20;;;;;;;7.07;3.95;;;;;;;21.38;53.12;101638.88;4893688;28;123568;-68
2022/07/01 08:04:51;;;;;;;6.47;4.13;;;;;;;21.51;53.03;101645.03;4893962;28;123725;-68
2022/07/01 08:07:18;;;;;;;10.23;4.13;;;;;;;21.62;52.57;101651.41;4900849;28;119131;-68
2022/07/01 08:09:48;;;;;;;6.75;4.35;;;;;;;21.68;52.22;101656.31;4907873;28;119150;-68
2022/07/01 08:12:16;;;;;;;9.02;4.25;;;;;;;21.75;52.52;101646.75;4900049;28;124806;-68
2022/07/01 08:14:44;;;;;;;6.53;3.80;;;;;;;21.85;52.17;101647.75;4909041;28;123771;-70
2022/07/01 08:17:11;;;;;;;5.88;3.53;;;;;;;21.96;51.70;101661.25;4898361;28;120536;-68
2022/07/01 08:19:38;;;;;;;6.60;3.28;;;;;;;22.05;51.78;101658.78;4899131;28;119753;-69
2022/07/01 08:22:05;;;;;;;6.78;3.50;;;;;;;22.16;51.70;101658.75;4903265;28;124252;-69
2022/07/01 08:24:33;;;;;;;5.20;3.05;;;;;;;22.27;51.31;101653.38;4896280;28;123869;-69
2022/07/01 08:27:00;;;;;;;4.97;3.20;;;;;;;22.33;50.85;101663.66;4891351;28;120026;-68
2022/07/01 08:29:27;;;;;;;5.30;2.78;;;;;;;22.41;50.61;101675.69;4905605;28;118253;-69
2022/07/01 08:31:54;;;;;;;5.15;2.50;;;;;;;22.48;50.03;101671.50;4906950;28;124519;-69
2022/07/01 08:34:22;;;;;;;5.57;2.78;;;;;;;22.54;49.97;101670.97;4895309;28;123897;-68
2022/07/01 08:36:49;;;;;;;5.30;2.60;;;;;;;22.63;50.16;101681.03;4901285;28;119420;-68
2022/07/01 08:39:16;;;;;;;4.80;2.55;;;;;;;22.73;50.01;101679.28;4895081;28;119016;-68
2022/07/01 08:41:43;;;;;;;5.60;2.70;;;;;;;22.86;49.91;101675.53;4899146;28;124118;-67
2022/07/01 08:44:11;;;;;;;4.18;2.25;;;;;;;22.97;49.38;101680.91;4897556;28;123085;-67
2022/07/01 08:46:38;;;;;;;5.03;2.22;;;;;;;23.04;48.79;101684.00;4894899;28;119962;-67
2022/07/01 08:49:06;;;;;;;5.47;2.35;;;;;;;23.07;48.62;101679.16;4905056;28;119026;-68
2022/07/01 08:51:33;;;;;;;4.70;1.75;;;;;;;23.09;48.45;101682.63;4894024;28;125048;-67
2022/07/01 08:54:00;;;;;;;3.78;1.60;;;;;;;23.13;48.14;101689.47;4898904;28;123557;-67
2022/07/01 08:56:45;;;;;;;7.07;1.70;;;;;;;23.17;47.56;101681.06;4896781;28;119782;-68
2022/07/01 08:59:21;;;;;;;4.95;1.70;;;;;;;23.20;47.64;101683.53;4896927;28;118969;-67
2022/07/01 09:01:55;;;;;;;4.30;1.40;;;;;;;23.29;47.58;101698.97;4893614;28;124729;-67
2022/07/01 09:04:23;;;;;;;3.25;1.48;;;;;;;23.38;47.38;101703.59;4903175;28;123938;-69
2022/07/01 09:06:51;;;;;;;3.47;1.20;;;;;;;23.41;46.61;101703.31;4896803;28;119803;-68
2022/07/01 09:09:21;;;;;;;3.15;0.90;;;;;;;23.39;46.20;101702.56;4906443;28;119897;-68
2022/07/01 09:11:53;;;;;;;4.18;1.20;;;;;;;23.35;45.86;101698.44;4904895;28;125084;-68
2022/07/01 09:14:25;;;;;;;5.60;0.90;;;;;;;23.33;46.14;101695.00;4909642;28;122993;-68
2022/07/01 09:17:00;;;;;;;1.92;1.08;;;;;;;23.33;46.10;101695.00;4905200;28;119673;-68
2022/07/01 09:19:30;;;;;;;2.70;1.10;;;;;;;23.37;46.34;101691.03;4901192;28;118821;-69
2022/07/01 09:22:02;;;;;;;2.28;1.20;;;;;;;23.45;46.28;101688.56;4906067;28;124139;-68
2022/07/01 09:24:42;;;;;;;3.60;1.45;;;;;;;23.55;46.38;101694.00;4909555;28;124632;-68
2022/07/01 09:27:16;;;;;;;2.72;1.33;;;;;;;23.68;45.97;101689.25;4894041;28;120531;-68
2022/07/01 09:29:51;;;;;;;2.88;0.98;;;;;;;23.82;45.66;101689.91;4907301;28;119005;-68
2022/07/01 09:32:21;;;;;;;4.15;1.77;;;;;;;23.95;45.90;101681.56;4909895;28;123944;-68
2022/07/01 09:34:51;;;;;;;3.92;1.80;;;;;;;24.08;45.69;101684.91;4907421;28;123673;-68
2022/07/01 09:37:24;;;;;;;3.60;1.45;;;;;;;24.21;45.33;101696.34;4907229;28;119430;-68
2022/07/01 09:39:56;;;;;;;1.75;0.90;;;;;;;24.26;44.32;101699.50;4909639;28;119735;-69
2022/07/01 09:42:25;;;;;;;3.08;1.20;;;;;;;24.32;44.51;101697.22;4898825;28;124483;-67
2022/07/01 09:44:58;;;;;;;6.45;1.73;;;;;;;24.46;44.65;101699.53;4909136;28;124366;-68
2022/07/01 09:47:32;;;;;;;3.30;1.05;;;;;;;24.60;44.25;101696.47;4907500;28;119737;-69
2022/07/01 09:50:01;;;;;;;3.28;1.05;;;;;;;24.67;43.93;101697.59;4910491;28;120687;-68
2022/07/01 09:52:28;;;;;;;1.67;0.80;;;;;;;24.68;43.54;101696.63;4905910;28;123836;-68
2022/07/01 09:55:05;;;;;;;1.92;0.90;;;;;;;24.72;43.75;101704.47;4904859;28;124619;-68
2022/07/01 09:57:32;;;;;;;3.28;1.00;;;;;;;24.77;43.27;101703.06;4902027;28;120444;-70
2022/07/01 09:59:59;;;;;;;1.73;0.80;;;;;;;24.86;43.44;101702.22;4907463;28;119870;-70
2022/07/01 10:02:30;;;;;;;2.22;0.75;;;;;;;24.91;42.90;101709.91;4906673;28;124180;-71
2022/07/01 10:05:13;;;;;;;3.15;0.90;;;;;;;24.96;42.64;101717.59;4919777;28;123651;-71
2022/07/01 10:08:03;;;;;;;1.98;0.93;;;;;;;24.95;42.36;101711.31;4905331;28;119376;-71
2022/07/01 10:10:44;;;;;;;4.10;1.17;;;;;;;24.92;41.98;101711.63;4896834;28;118845;-72
2022/07/01 10:13:16;;;;;;;2.47;0.90;;;;;;;24.85;41.50;101726.75;4896264;28;124247;-71
2022/07/01 10:15:46;;;;;;;4.05;1.02;;;;;;;24.84;42.01;101714.19;4891817;28;124559;-71
2022/07/01 10:18:22;;;;;;;2.28;0.85;;;;;;;24.88;42.06;101726.44;4895705;28;119566;-71
2022/07/01 10:20:51;;;;;;;3.70;0.90;;;;;;;24.95;41.96;101726.75;4895948;28;118851;-72
2022/07/01 10:23:27;;;;;;;2.78;1.02;;;;;;;25.04;42.09;101715.91;4896843;28;123988;-71
2022/07/01 10:26:02;;;;;;;2.38;0.90;;;;;;;25.18;42.21;101732.72;4907740;28;124841;-71
2022/07/01 10:28:48;;;;;;;4.90;1.20;;;;;;;25.30;42.01;101731.63;4905680;28;119951;-71
2022/07/01 10:31:17;;;;;;;2.83;1.10;;;;;;;25.39;41.81;101725.34;4905310;28;118806;-71
2022/07/01 10:34:04;;;;;;;2.55;0.93;;;;;;;25.45;41.48;101724.75;4889979;28;124096;-71
2022/07/01 10:36:33;;;;;;;2.45;1.10;;;;;;;25.53;41.09;101726.75;4893352;28;123784;-71
2022/07/01 10:39:01;;;;;;;2.17;0.95;;;;;;;25.53;40.57;101720.47;4895479;28;119888;-70
2022/07/01 10:41:34;;;;;;;2.55;1.00;;;;;;;25.43;39.99;101721.34;4894769;28;119071;-71
2022/07/01 10:44:06;;;;;;;1.95;0.70;;;;;;;25.38;40.04;101728.19;4920591;28;123108;-70
2022/07/01 10:46:46;;;;;;;3.53;1.00;;;;;;;25.36;40.27;101730.19;4890049;28;124403;-70
2022/07/01 10:49:16;;;;;;;4.50;1.08;;;;;;;25.37;40.49;101721.94;4902517;28;119257;-70
2022/07/01 10:51:54;;;;;;;1.80;1.10;;;;;;;25.38;40.47;101726.34;4896697;28;119694;-71
2022/07/01 10:54:33;;;;;;;2.95;1.00;;;;;;;25.39;40.36;101725.34;4898226;28;123800;-70
2022/07/01 10:57:19;;;;;;;3.28;1.52;;;;;;;25.41;40.58;101728.75;4898266;28;124279;-71
2022/07/01 10:59:59;;;;;;;1.63;0.80;;;;;;;25.45;40.68;101729.34;4901497;28;119279;-70
2022/07/01 11:02:36;;;;;;;3.22;0.90;;;;;;;25.46;40.03;101736.44;4906754;28;119512;-70
2022/07/01 11:05:07;;;;;;;3.22;1.13;;;;;;;25.41;39.75;101728.75;4897496;28;123843;-70
2022/07/01 11:07:35;;;;;;;2.25;1.05;;;;;;;25.31;39.43;101743.31;4893738;28;123982;-70
2022/07/01 11:10:07;;;;;;;2.47;0.90;;;;;;;25.19;39.30;101742.59;4897883;28;119242;-70
2022/07/01 11:12:34;;;;;;;2.00;0.90;;;;;;;25.05;39.59;101733.88;4904236;28;119050;-70
2022/07/01 11:15:05;;;;;;;2.85;0.93;;;;;;;24.98;39.51;101738.16;4906546;28;124363;-70
2022/07/01 11:17:34;;;;;;;1.83;0.90;;;;;;;24.99;39.68;101729.00;4906461;28;123947;-70
2022/07/01 11:20:02;;;;;;;2.15;1.10;;;;;;;25.02;39.91;101727.91;4904179;28;119231;-71
2022/07/01 11:22:32;;;;;;;2.10;1.00;;;;;;;25.06;39.59;101735.59;4899781;28;118988;-71
2022/07/01 11:25:09;;;;;;;2.38;0.88;;;;;;;25.11;39.39;101720.75;4910489;28;124677;-71